sensor_id;sensor_type;location;lat;lon;timestamp;temperature;humidity
3602;DHT22;1815;50.950;6.920;2023-04-01T00:00:17;13.40;99.90
3602;DHT22;1815;50.950;6.920;2023-04-01T00:02:43;13.40;99.90
3602;DHT22;1815;50.950;6.920;2023-04-01T00:05:10;13.40;99.90
3602;DHT22;1815;50.950;6.920;2023-04-01T00:07:37;13.40;99.90
3602;DHT22;1815;50.950;6.920;2023-04-01T00:10:05;13.30;99.90
3602;DHT22;1815;50.950;6.920;2023-04-01T00:12:31;13.40;99.90
3602;DHT22;1815;50.950;6.920;2023-04-01T00:14:56;13.40;99.90
3602;DHT22;1815;50.950;6.920;2023-04-01T00:17:22;13.40;99.90
3602;DHT22;1815;50.950;6.920;2023-04-01T00:19:48;13.40;99.90
3602;DHT22;1815;50.950;6.920;2023-04-01T00:22:14;13.40;99.90
3602;DHT22;1815;50.950;6.920;2023-04-01T00:24:40;13.50;99.90
3602;DHT22;1815;50.950;6.920;2023-04-01T00:27:05;13.50;99.90
3602;DHT22;1815;50.950;6.920;2023-04-01T00:29:32;13.40;99.90
3602;DHT22;1815;50.950;6.920;2023-04-01T00:31:58;13.50;99.90
3602;DHT22;1815;50.950;6.920;2023-04-01T00:34:24;13.50;99.90
3602;DHT22;1815;50.950;6.920;2023-04-01T00:36:52;13.50;99.90
3602;DHT22;1815;50.950;6.920;2023-04-01T00:39:20;13.50;99.90
3602;DHT22;1815;50.950;6.920;2023-04-01T00:41:46;13.50;99.90
3602;DHT22;1815;50.950;6.920;2023-04-01T00:44:21;13.50;99.90
3602;DHT22;1815;50.950;6.920;2023-04-01T00:46:48;13.50;99.90
3602;DHT22;1815;50.950;6.920;2023-04-01T00:49:17;13.50;99.90
3602;DHT22;1815;50.950;6.920;2023-04-01T00:51:45;13.50;99.90
3602;DHT22;1815;50.950;6.920;2023-04-01T00:54:12;13.50;99.90
3602;DHT22;1815;50.950;6.920;2023-04-01T00:56:44;13.50;99.90
3602;DHT22;1815;50.950;6.920;2023-04-01T00:59:14;13.50;99.90
3602;DHT22;1815;50.950;6.920;2023-04-01T01:01:41;13.50;99.90
3602;DHT22;1815;50.950;6.920;2023-04-01T01:04:19;13.50;99.90
3602;DHT22;1815;50.950;6.920;2023-04-01T01:06:56;13.50;99.90
3602;DHT22;1815;50.950;6.920;2023-04-01T01:18:06;13.50;99.90
3602;DHT22;1815;50.950;6.920;2023-04-01T01:20:54;13.50;99.90
3602;DHT22;1815;50.950;6.920;2023-04-01T01:35:33;13.50;99.90
3602;DHT22;1815;50.950;6.920;2023-04-01T01:38:11;13.50;99.90
3602;DHT22;1815;50.950;6.920;2023-04-01T01:40:43;13.50;99.90
3602;DHT22;1815;50.950;6.920;2023-04-01T01:43:14;13.50;99.90
3602;DHT22;1815;50.950;6.920;2023-04-01T01:45:46;13.50;99.90
3602;DHT22;1815;50.950;6.920;2023-04-01T01:48:13;13.50;99.90
3602;DHT22;1815;50.950;6.920;2023-04-01T01:50:41;13.50;99.90
3602;DHT22;1815;50.950;6.920;2023-04-01T01:53:11;13.40;99.90
3602;DHT22;1815;50.950;6.920;2023-04-01T01:55:43;13.40;99.90
3602;DHT22;1815;50.950;6.920;2023-04-01T01:58:13;13.30;99.90
3602;DHT22;1815;50.950;6.920;2023-04-01T02:00:44;13.30;99.90
3602;DHT22;1815;50.950;6.920;2023-04-01T02:03:13;13.30;99.90
3602;DHT22;1815;50.950;6.920;2023-04-01T02:05:40;13.20;99.90
3602;DHT22;1815;50.950;6.920;2023-04-01T02:08:20;13.20;99.90
3602;DHT22;1815;50.950;6.920;2023-04-01T02:10:56;13.10;99.90
3602;DHT22;1815;50.950;6.920;2023-04-01T02:13:53;13.10;99.90
3602;DHT22;1815;50.950;6.920;2023-04-01T02:16:38;13.00;99.90
3602;DHT22;1815;50.950;6.920;2023-04-01T02:19:06;13.00;99.90
3602;DHT22;1815;50.950;6.920;2023-04-01T02:21:33;12.90;99.90
3602;DHT22;1815;50.950;6.920;2023-04-01T02:24:03;12.80;99.90
3602;DHT22;1815;50.950;6.920;2023-04-01T02:26:30;12.70;99.90
3602;DHT22;1815;50.950;6.920;2023-04-01T02:28:57;12.70;99.90
3602;DHT22;1815;50.950;6.920;2023-04-01T02:31:25;12.60;99.90
3602;DHT22;1815;50.950;6.920;2023-04-01T02:33:51;12.50;99.90
3602;DHT22;1815;50.950;6.920;2023-04-01T02:36:17;12.40;99.90
3602;DHT22;1815;50.950;6.920;2023-04-01T02:38:44;12.30;99.90
3602;DHT22;1815;50.950;6.920;2023-04-01T02:41:11;12.30;99.90
3602;DHT22;1815;50.950;6.920;2023-04-01T02:43:37;12.20;99.90
3602;DHT22;1815;50.950;6.920;2023-04-01T02:46:03;12.20;99.90
3602;DHT22;1815;50.950;6.920;2023-04-01T02:48:29;12.10;99.90
3602;DHT22;1815;50.950;6.920;2023-04-01T02:50:55;12.00;99.90
3602;DHT22;1815;50.950;6.920;2023-04-01T02:53:21;12.00;99.90
3602;DHT22;1815;50.950;6.920;2023-04-01T02:55:47;11.90;99.90
3602;DHT22;1815;50.950;6.920;2023-04-01T02:58:16;11.90;99.90
3602;DHT22;1815;50.950;6.920;2023-04-01T03:00:42;11.90;99.90
3602;DHT22;1815;50.950;6.920;2023-04-01T03:03:09;11.80;99.90
3602;DHT22;1815;50.950;6.920;2023-04-01T03:05:35;11.80;99.90
3602;DHT22;1815;50.950;6.920;2023-04-01T03:08:01;11.90;99.90
3602;DHT22;1815;50.950;6.920;2023-04-01T03:10:28;11.80;99.90
3602;DHT22;1815;50.950;6.920;2023-04-01T03:12:53;11.80;99.90
3602;DHT22;1815;50.950;6.920;2023-04-01T03:15:19;11.80;99.90
3602;DHT22;1815;50.950;6.920;2023-04-01T03:17:45;11.80;99.90
3602;DHT22;1815;50.950;6.920;2023-04-01T03:20:13;11.80;99.90
3602;DHT22;1815;50.950;6.920;2023-04-01T03:22:39;11.80;99.90
3602;DHT22;1815;50.950;6.920;2023-04-01T03:25:05;11.80;99.90
3602;DHT22;1815;50.950;6.920;2023-04-01T03:27:33;11.80;99.90
3602;DHT22;1815;50.950;6.920;2023-04-01T03:30:00;11.80;99.90
3602;DHT22;1815;50.950;6.920;2023-04-01T03:32:27;11.80;99.90
3602;DHT22;1815;50.950;6.920;2023-04-01T03:34:53;11.80;99.90
3602;DHT22;1815;50.950;6.920;2023-04-01T03:37:18;11.80;99.90
3602;DHT22;1815;50.950;6.920;2023-04-01T03:39:45;11.80;99.90
3602;DHT22;1815;50.950;6.920;2023-04-01T03:42:11;11.80;99.90
3602;DHT22;1815;50.950;6.920;2023-04-01T03:44:37;11.90;99.90
3602;DHT22;1815;50.950;6.920;2023-04-01T03:47:03;11.90;99.90
3602;DHT22;1815;50.950;6.920;2023-04-01T03:49:29;11.90;99.90
3602;DHT22;1815;50.950;6.920;2023-04-01T03:51:57;11.90;99.90
3602;DHT22;1815;50.950;6.920;2023-04-01T03:54:23;11.80;99.90
3602;DHT22;1815;50.950;6.920;2023-04-01T03:56:49;11.90;99.90
3602;DHT22;1815;50.950;6.920;2023-04-01T03:59:15;11.90;99.90
3602;DHT22;1815;50.950;6.920;2023-04-01T04:01:41;11.90;99.90
3602;DHT22;1815;50.950;6.920;2023-04-01T04:04:07;11.90;99.90
3602;DHT22;1815;50.950;6.920;2023-04-01T04:06:33;11.90;99.90
3602;DHT22;1815;50.950;6.920;2023-04-01T04:08:59;11.90;99.90
3602;DHT22;1815;50.950;6.920;2023-04-01T04:11:26;11.90;99.90
3602;DHT22;1815;50.950;6.920;2023-04-01T04:13:52;12.00;99.90
3602;DHT22;1815;50.950;6.920;2023-04-01T04:16:18;12.00;99.90
3602;DHT22;1815;50.950;6.920;2023-04-01T04:18:51;12.00;99.90
3602;DHT22;1815;50.950;6.920;2023-04-01T04:21:17;12.00;99.90
3602;DHT22;1815;50.950;6.920;2023-04-01T04:23:43;12.00;99.90
3602;DHT22;1815;50.950;6.920;2023-04-01T04:26:11;12.00;99.90
3602;DHT22;1815;50.950;6.920;2023-04-01T04:28:38;12.10;99.90
3602;DHT22;1815;50.950;6.920;2023-04-01T04:31:04;12.10;99.90
3602;DHT22;1815;50.950;6.920;2023-04-01T04:33:33;12.10;99.90
3602;DHT22;1815;50.950;6.920;2023-04-01T04:35:59;12.10;99.90
3602;DHT22;1815;50.950;6.920;2023-04-01T04:38:26;12.10;99.90
3602;DHT22;1815;50.950;6.920;2023-04-01T04:40:53;12.10;99.90
3602;DHT22;1815;50.950;6.920;2023-04-01T04:43:19;12.10;99.90
3602;DHT22;1815;50.950;6.920;2023-04-01T04:45:45;12.10;99.90
3602;DHT22;1815;50.950;6.920;2023-04-01T04:48:12;12.10;99.90
3602;DHT22;1815;50.950;6.920;2023-04-01T04:50:42;12.10;99.90
3602;DHT22;1815;50.950;6.920;2023-04-01T04:53:12;12.10;99.90
3602;DHT22;1815;50.950;6.920;2023-04-01T04:55:42;12.10;99.90
3602;DHT22;1815;50.950;6.920;2023-04-01T04:58:27;12.10;99.90
3602;DHT22;1815;50.950;6.920;2023-04-01T05:00:53;12.10;99.90
3602;DHT22;1815;50.950;6.920;2023-04-01T05:03:27;12.00;99.90
3602;DHT22;1815;50.950;6.920;2023-04-01T05:05:53;12.00;99.90
3602;DHT22;1815;50.950;6.920;2023-04-01T05:08:20;12.00;99.90
3602;DHT22;1815;50.950;6.920;2023-04-01T05:10:46;12.00;99.90
3602;DHT22;1815;50.950;6.920;2023-04-01T05:13:12;12.00;99.90
3602;DHT22;1815;50.950;6.920;2023-04-01T05:15:39;12.00;99.90
3602;DHT22;1815;50.950;6.920;2023-04-01T05:18:05;12.00;99.90
3602;DHT22;1815;50.950;6.920;2023-04-01T05:20:30;12.00;99.90
3602;DHT22;1815;50.950;6.920;2023-04-01T05:22:57;12.00;99.90
3602;DHT22;1815;50.950;6.920;2023-04-01T05:25:23;12.00;99.90
3602;DHT22;1815;50.950;6.920;2023-04-01T05:27:49;12.00;99.90
3602;DHT22;1815;50.950;6.920;2023-04-01T05:30:15;12.00;99.90
3602;DHT22;1815;50.950;6.920;2023-04-01T05:33:00;12.00;99.90
3602;DHT22;1815;50.950;6.920;2023-04-01T05:35:27;12.00;99.90
3602;DHT22;1815;50.950;6.920;2023-04-01T05:37:52;12.00;99.90
3602;DHT22;1815;50.950;6.920;2023-04-01T05:40:19;12.00;99.90
3602;DHT22;1815;50.950;6.920;2023-04-01T05:42:45;12.00;99.90
3602;DHT22;1815;50.950;6.920;2023-04-01T05:45:11;12.00;99.90
3602;DHT22;1815;50.950;6.920;2023-04-01T05:47:56;12.00;99.90
3602;DHT22;1815;50.950;6.920;2023-04-01T05:50:22;12.00;99.90
3602;DHT22;1815;50.950;6.920;2023-04-01T05:52:48;12.00;99.90
3602;DHT22;1815;50.950;6.920;2023-04-01T05:55:14;12.00;99.90
3602;DHT22;1815;50.950;6.920;2023-04-01T05:57:40;12.00;99.90
3602;DHT22;1815;50.950;6.920;2023-04-01T06:00:06;12.00;99.90
3602;DHT22;1815;50.950;6.920;2023-04-01T06:02:38;12.00;99.90
3602;DHT22;1815;50.950;6.920;2023-04-01T06:05:17;12.00;99.90
3602;DHT22;1815;50.950;6.920;2023-04-01T06:07:43;12.00;99.90
3602;DHT22;1815;50.950;6.920;2023-04-01T06:10:18;12.00;99.90
3602;DHT22;1815;50.950;6.920;2023-04-01T06:13:06;12.00;99.90
3602;DHT22;1815;50.950;6.920;2023-04-01T06:15:50;12.00;99.90
3602;DHT22;1815;50.950;6.920;2023-04-01T06:21:26;12.00;99.90
3602;DHT22;1815;50.950;6.920;2023-04-01T06:26:43;12.00;99.90
3602;DHT22;1815;50.950;6.920;2023-04-01T06:29:22;12.10;99.90
3602;DHT22;1815;50.950;6.920;2023-04-01T06:32:27;12.10;99.90
3602;DHT22;1815;50.950;6.920;2023-04-01T06:35:13;12.10;99.90
3602;DHT22;1815;50.950;6.920;2023-04-01T06:41:06;12.20;99.90
3602;DHT22;1815;50.950;6.920;2023-04-01T06:46:58;12.20;99.90
3602;DHT22;1815;50.950;6.920;2023-04-01T06:53:07;12.30;99.90
3602;DHT22;1815;50.950;6.920;2023-04-01T06:55:57;12.30;99.90
3602;DHT22;1815;50.950;6.920;2023-04-01T06:58:49;12.30;99.90
3602;DHT22;1815;50.950;6.920;2023-04-01T07:01:22;12.40;99.90
3602;DHT22;1815;50.950;6.920;2023-04-01T07:04:00;12.40;99.90
3602;DHT22;1815;50.950;6.920;2023-04-01T07:06:38;12.40;99.90
3602;DHT22;1815;50.950;6.920;2023-04-01T07:09:10;12.40;99.90
3602;DHT22;1815;50.950;6.920;2023-04-01T07:12:04;12.40;99.90
3602;DHT22;1815;50.950;6.920;2023-04-01T07:15:13;12.50;99.90
3602;DHT22;1815;50.950;6.920;2023-04-01T07:17:42;12.50;99.90
3602;DHT22;1815;50.950;6.920;2023-04-01T07:22:44;12.50;99.90
3602;DHT22;1815;50.950;6.920;2023-04-01T07:25:44;12.50;99.90
3602;DHT22;1815;50.950;6.920;2023-04-01T07:28:34;12.50;99.90
3602;DHT22;1815;50.950;6.920;2023-04-01T07:37:14;12.60;99.90
3602;DHT22;1815;50.950;6.920;2023-04-01T07:40:08;12.60;99.90
3602;DHT22;1815;50.950;6.920;2023-04-01T07:45:35;12.60;99.90
3602;DHT22;1815;50.950;6.920;2023-04-01T07:50:46;12.60;99.90
3602;DHT22;1815;50.950;6.920;2023-04-01T07:53:49;12.60;99.90
3602;DHT22;1815;50.950;6.920;2023-04-01T07:56:30;12.70;99.90
3602;DHT22;1815;50.950;6.920;2023-04-01T07:59:10;12.70;99.90
3602;DHT22;1815;50.950;6.920;2023-04-01T08:02:32;12.80;99.90
3602;DHT22;1815;50.950;6.920;2023-04-01T08:05:03;12.80;99.90
3602;DHT22;1815;50.950;6.920;2023-04-01T08:07:40;12.80;99.90
3602;DHT22;1815;50.950;6.920;2023-04-01T08:19:27;12.90;99.90
3602;DHT22;1815;50.950;6.920;2023-04-01T08:21:58;12.90;99.90
3602;DHT22;1815;50.950;6.920;2023-04-01T08:24:46;12.90;99.90
3602;DHT22;1815;50.950;6.920;2023-04-01T08:29:54;12.90;99.90
3602;DHT22;1815;50.950;6.920;2023-04-01T08:32:34;12.90;99.90
3602;DHT22;1815;50.950;6.920;2023-04-01T08:38:15;12.90;99.90
3602;DHT22;1815;50.950;6.920;2023-04-01T08:41:11;12.90;99.90
3602;DHT22;1815;50.950;6.920;2023-04-01T08:55:12;13.10;99.90
3602;DHT22;1815;50.950;6.920;2023-04-01T09:00:55;13.10;99.90
3602;DHT22;1815;50.950;6.920;2023-04-01T09:12:41;13.30;99.90
3602;DHT22;1815;50.950;6.920;2023-04-01T09:23:33;13.50;99.90
3602;DHT22;1815;50.950;6.920;2023-04-01T09:29:09;13.60;99.90
3602;DHT22;1815;50.950;6.920;2023-04-01T09:35:10;13.50;99.90
3602;DHT22;1815;50.950;6.920;2023-04-01T09:40:21;13.50;99.90
3602;DHT22;1815;50.950;6.920;2023-04-01T09:51:21;13.50;99.90
3602;DHT22;1815;50.950;6.920;2023-04-01T09:56:51;13.40;99.90
3602;DHT22;1815;50.950;6.920;2023-04-01T10:08:41;13.40;99.90
3602;DHT22;1815;50.950;6.920;2023-04-01T10:35:44;13.60;99.90
3602;DHT22;1815;50.950;6.920;2023-04-01T10:50:11;13.70;99.90
3602;DHT22;1815;50.950;6.920;2023-04-01T10:59:53;14.00;99.90
3602;DHT22;1815;50.950;6.920;2023-04-01T11:12:13;14.50;99.90
3602;DHT22;1815;50.950;6.920;2023-04-01T11:20:45;14.70;99.90
3602;DHT22;1815;50.950;6.920;2023-04-01T11:40:45;15.00;99.90
3602;DHT22;1815;50.950;6.920;2023-04-01T11:55:35;15.20;99.90
3602;DHT22;1815;50.950;6.920;2023-04-01T12:10:18;15.00;99.90
3602;DHT22;1815;50.950;6.920;2023-04-01T12:18:35;14.80;99.90
3602;DHT22;1815;50.950;6.920;2023-04-01T12:21:31;15.00;99.90
3602;DHT22;1815;50.950;6.920;2023-04-01T12:27:02;15.20;99.90
3602;DHT22;1815;50.950;6.920;2023-04-01T12:29:46;15.20;99.90
3602;DHT22;1815;50.950;6.920;2023-04-01T12:37:39;15.40;99.90
3602;DHT22;1815;50.950;6.920;2023-04-01T12:46:39;15.60;99.90
3602;DHT22;1815;50.950;6.920;2023-04-01T12:57:20;15.70;99.90
3602;DHT22;1815;50.950;6.920;2023-04-01T13:17:13;15.40;99.90
3602;DHT22;1815;50.950;6.920;2023-04-01T13:25:32;15.40;99.90
3602;DHT22;1815;50.950;6.920;2023-04-01T13:28:15;15.40;99.90
3602;DHT22;1815;50.950;6.920;2023-04-01T13:30:50;15.40;99.90
3602;DHT22;1815;50.950;6.920;2023-04-01T13:33:38;15.50;99.90
3602;DHT22;1815;50.950;6.920;2023-04-01T13:39:24;15.50;99.90
3602;DHT22;1815;50.950;6.920;2023-04-01T13:42:33;15.60;99.90
3602;DHT22;1815;50.950;6.920;2023-04-01T13:48:14;15.50;99.90
3602;DHT22;1815;50.950;6.920;2023-04-01T13:53:44;15.20;99.90
3602;DHT22;1815;50.950;6.920;2023-04-01T14:05:09;14.80;99.90
3602;DHT22;1815;50.950;6.920;2023-04-01T14:10:43;14.80;99.90
3602;DHT22;1815;50.950;6.920;2023-04-01T14:21:55;14.70;99.90
3602;DHT22;1815;50.950;6.920;2023-04-01T14:27:24;14.70;99.90
3602;DHT22;1815;50.950;6.920;2023-04-01T14:36:14;14.60;99.90
3602;DHT22;1815;50.950;6.920;2023-04-01T14:42:51;14.50;99.90
3602;DHT22;1815;50.950;6.920;2023-04-01T14:45:27;14.50;99.90
3602;DHT22;1815;50.950;6.920;2023-04-01T14:50:46;14.40;99.90
3602;DHT22;1815;50.950;6.920;2023-04-01T14:53:34;14.30;99.90
3602;DHT22;1815;50.950;6.920;2023-04-01T14:56:04;14.30;99.90
3602;DHT22;1815;50.950;6.920;2023-04-01T14:58:57;14.30;99.90
3602;DHT22;1815;50.950;6.920;2023-04-01T15:01:58;14.30;99.90
3602;DHT22;1815;50.950;6.920;2023-04-01T15:04:41;14.30;99.90
3602;DHT22;1815;50.950;6.920;2023-04-01T15:10:19;14.30;99.90
3602;DHT22;1815;50.950;6.920;2023-04-01T15:21:26;14.30;99.90
3602;DHT22;1815;50.950;6.920;2023-04-01T15:24:10;14.20;99.90
3602;DHT22;1815;50.950;6.920;2023-04-01T15:27:06;14.20;99.90
3602;DHT22;1815;50.950;6.920;2023-04-01T15:32:17;14.30;99.90
3602;DHT22;1815;50.950;6.920;2023-04-01T15:35:09;14.30;99.90
3602;DHT22;1815;50.950;6.920;2023-04-01T15:43:57;14.30;99.90
3602;DHT22;1815;50.950;6.920;2023-04-01T15:46:42;14.30;99.90
3602;DHT22;1815;50.950;6.920;2023-04-01T15:52:22;14.40;99.90
3602;DHT22;1815;50.950;6.920;2023-04-01T15:55:12;14.30;99.90
3602;DHT22;1815;50.950;6.920;2023-04-01T16:08:37;14.20;99.90
3602;DHT22;1815;50.950;6.920;2023-04-01T16:19:21;14.10;99.90
3602;DHT22;1815;50.950;6.920;2023-04-01T16:22:00;14.10;99.90
3602;DHT22;1815;50.950;6.920;2023-04-01T16:30:00;14.00;99.90
3602;DHT22;1815;50.950;6.920;2023-04-01T16:40:52;13.90;99.90
3602;DHT22;1815;50.950;6.920;2023-04-01T16:43:30;13.90;99.90
3602;DHT22;1815;50.950;6.920;2023-04-01T16:51:18;13.70;99.90
3602;DHT22;1815;50.950;6.920;2023-04-01T16:54:14;13.60;99.90
3602;DHT22;1815;50.950;6.920;2023-04-01T16:56:56;13.60;99.90
3602;DHT22;1815;50.950;6.920;2023-04-01T16:59:33;13.60;99.90
3602;DHT22;1815;50.950;6.920;2023-04-01T17:04:34;13.60;99.90
3602;DHT22;1815;50.950;6.920;2023-04-01T17:12:48;13.50;99.90
3602;DHT22;1815;50.950;6.920;2023-04-01T17:23:53;13.50;99.90
3602;DHT22;1815;50.950;6.920;2023-04-01T17:37:21;13.30;99.90
3602;DHT22;1815;50.950;6.920;2023-04-01T17:40:00;13.20;99.90
3602;DHT22;1815;50.950;6.920;2023-04-01T17:51:24;13.10;99.90
3602;DHT22;1815;50.950;6.920;2023-04-01T17:56:55;12.90;99.90
3602;DHT22;1815;50.950;6.920;2023-04-01T17:59:43;12.90;99.90
3602;DHT22;1815;50.950;6.920;2023-04-01T18:03:00;12.90;99.90
3602;DHT22;1815;50.950;6.920;2023-04-01T18:08:26;12.90;99.90
3602;DHT22;1815;50.950;6.920;2023-04-01T18:16:26;12.90;99.90
3602;DHT22;1815;50.950;6.920;2023-04-01T18:24:42;12.80;99.90
3602;DHT22;1815;50.950;6.920;2023-04-01T18:32:52;12.70;99.90
3602;DHT22;1815;50.950;6.920;2023-04-01T18:35:54;12.60;99.90
3602;DHT22;1815;50.950;6.920;2023-04-01T18:38:33;12.60;99.90
3602;DHT22;1815;50.950;6.920;2023-04-01T18:41:13;12.60;99.90
3602;DHT22;1815;50.950;6.920;2023-04-01T18:44:05;12.50;99.90
3602;DHT22;1815;50.950;6.920;2023-04-01T18:49:52;12.50;99.90
3602;DHT22;1815;50.950;6.920;2023-04-01T18:52:36;12.50;99.90
3602;DHT22;1815;50.950;6.920;2023-04-01T18:57:50;12.40;99.90
3602;DHT22;1815;50.950;6.920;2023-04-01T19:00:27;12.40;99.90
3602;DHT22;1815;50.950;6.920;2023-04-01T19:03:15;12.40;99.90
3602;DHT22;1815;50.950;6.920;2023-04-01T19:05:45;12.40;99.90
3602;DHT22;1815;50.950;6.920;2023-04-01T19:16:43;12.30;99.90
3602;DHT22;1815;50.950;6.920;2023-04-01T19:27:52;12.30;99.90
3602;DHT22;1815;50.950;6.920;2023-04-01T19:30:42;12.30;99.90
3602;DHT22;1815;50.950;6.920;2023-04-01T19:33:32;12.30;99.90
3602;DHT22;1815;50.950;6.920;2023-04-01T19:39:00;12.30;99.90
3602;DHT22;1815;50.950;6.920;2023-04-01T19:41:41;12.30;99.90
3602;DHT22;1815;50.950;6.920;2023-04-01T19:46:45;12.30;99.90
3602;DHT22;1815;50.950;6.920;2023-04-01T20:02:34;12.30;99.90
3602;DHT22;1815;50.950;6.920;2023-04-01T20:07:52;12.20;99.90
3602;DHT22;1815;50.950;6.920;2023-04-01T20:10:30;12.20;99.90
3602;DHT22;1815;50.950;6.920;2023-04-01T20:13:06;12.10;99.90
3602;DHT22;1815;50.950;6.920;2023-04-01T20:15:44;12.10;99.90
3602;DHT22;1815;50.950;6.920;2023-04-01T20:21:19;12.10;99.90
3602;DHT22;1815;50.950;6.920;2023-04-01T20:23:57;12.00;99.90
3602;DHT22;1815;50.950;6.920;2023-04-01T20:26:32;12.00;99.90
3602;DHT22;1815;50.950;6.920;2023-04-01T20:29:24;12.00;99.90
3602;DHT22;1815;50.950;6.920;2023-04-01T20:32:04;12.00;99.90
3602;DHT22;1815;50.950;6.920;2023-04-01T20:37:50;12.00;99.90
3602;DHT22;1815;50.950;6.920;2023-04-01T20:40:43;12.00;99.90
3602;DHT22;1815;50.950;6.920;2023-04-01T20:43:16;12.00;99.90
3602;DHT22;1815;50.950;6.920;2023-04-01T20:46:20;12.00;99.90
3602;DHT22;1815;50.950;6.920;2023-04-01T20:51:23;11.90;99.90
3602;DHT22;1815;50.950;6.920;2023-04-01T20:54:18;11.90;99.90
3602;DHT22;1815;50.950;6.920;2023-04-01T20:57:06;11.90;99.90
3602;DHT22;1815;50.950;6.920;2023-04-01T21:02:29;11.90;99.90
3602;DHT22;1815;50.950;6.920;2023-04-01T21:11:16;11.80;99.90
3602;DHT22;1815;50.950;6.920;2023-04-01T21:20:01;11.90;99.90
3602;DHT22;1815;50.950;6.920;2023-04-01T21:22:44;11.90;99.90
3602;DHT22;1815;50.950;6.920;2023-04-01T21:28:29;11.90;99.90
3602;DHT22;1815;50.950;6.920;2023-04-01T21:42:23;11.80;99.90
3602;DHT22;1815;50.950;6.920;2023-04-01T21:54:12;11.70;99.90
3602;DHT22;1815;50.950;6.920;2023-04-01T22:05:28;11.80;99.90
3602;DHT22;1815;50.950;6.920;2023-04-01T22:11:03;11.70;99.90
3602;DHT22;1815;50.950;6.920;2023-04-01T22:16:05;11.70;99.90
3602;DHT22;1815;50.950;6.920;2023-04-01T22:18:41;11.70;99.90
3602;DHT22;1815;50.950;6.920;2023-04-01T22:21:21;11.70;99.90
3602;DHT22;1815;50.950;6.920;2023-04-01T22:24:13;11.70;99.90
3602;DHT22;1815;50.950;6.920;2023-04-01T22:26:44;11.70;99.90
3602;DHT22;1815;50.950;6.920;2023-04-01T22:32:02;11.70;99.90
3602;DHT22;1815;50.950;6.920;2023-04-01T22:37:21;11.80;99.90
3602;DHT22;1815;50.950;6.920;2023-04-01T22:40:37;11.80;99.90
3602;DHT22;1815;50.950;6.920;2023-04-01T22:48:01;11.90;99.90
3602;DHT22;1815;50.950;6.920;2023-04-01T22:50:52;12.00;99.90
3602;DHT22;1815;50.950;6.920;2023-04-01T22:55:59;12.00;99.90
3602;DHT22;1815;50.950;6.920;2023-04-01T22:58:34;12.00;99.90
3602;DHT22;1815;50.950;6.920;2023-04-01T23:01:06;12.00;99.90
3602;DHT22;1815;50.950;6.920;2023-04-01T23:03:39;12.00;99.90
3602;DHT22;1815;50.950;6.920;2023-04-01T23:06:06;12.00;99.90
3602;DHT22;1815;50.950;6.920;2023-04-01T23:24:47;12.20;99.90
3602;DHT22;1815;50.950;6.920;2023-04-01T23:27:38;12.20;99.90
3602;DHT22;1815;50.950;6.920;2023-04-01T23:33:27;12.20;99.90
3602;DHT22;1815;50.950;6.920;2023-04-01T23:35:59;12.20;99.90
3602;DHT22;1815;50.950;6.920;2023-04-01T23:38:37;12.20;99.90
3602;DHT22;1815;50.950;6.920;2023-04-01T23:41:04;12.20;99.90
3602;DHT22;1815;50.950;6.920;2023-04-01T23:43:35;12.20;99.90
3602;DHT22;1815;50.950;6.920;2023-04-01T23:46:02;12.20;99.90
3602;DHT22;1815;50.950;6.920;2023-04-01T23:48:33;12.20;99.90
3602;DHT22;1815;50.950;6.920;2023-04-01T23:51:00;12.10;99.90
3602;DHT22;1815;50.950;6.920;2023-04-01T23:53:30;12.20;99.90
3602;DHT22;1815;50.950;6.920;2023-04-01T23:55:58;12.10;99.90
3602;DHT22;1815;50.950;6.920;2023-04-01T23:58:25;12.10;99.90
